Time;durP1;ratioP1;P1;durP2;ratioP2;P2;SDS_P1;SDS_P2;PMS_P1;PMS_P2;Temp;Humidity;BMP_temperature;BMP_pressure;BME280_temperature;BME280_humidity;BME280_pressure;Samples;Min_cycle;Max_cycle;Signal;HPM_P1;HPM_P2
2024/03/25 00:01:11;;;;;;;6.60;2.70;;;;;;;2.35;87.95;97693.91;272049;1270;23885;-89
2024/03/25 00:07:15;;;;;;;6.50;3.20;;;;;;;2.20;87.86;97693.98;272715;1270;22473;-89
2024/03/25 00:13:19;;;;;;;7.60;3.60;;;;;;;2.02;87.79;97699.25;272733;1269;23226;-88
2024/03/25 00:19:21;;;;;;;10.10;3.90;;;;;;;1.91;88.95;97699.38;272761;1270;22283;-89
2024/03/25 00:25:23;;;;;;;11.10;4.60;;;;;;;1.82;88.79;97689.75;272250;1270;23043;-89
2024/03/25 00:31:25;;;;;;;7.90;3.80;;;;;;;1.76;89.85;97685.52;271060;1269;22334;-88
2024/03/25 00:37:28;;;;;;;8.70;3.80;;;;;;;1.70;90.26;97685.53;272074;1269;22364;-88
2024/03/25 00:43:30;;;;;;;12.20;4.60;;;;;;;1.66;90.76;97684.50;272511;1269;139903;-89
2024/03/25 00:49:32;;;;;;;9.30;4.40;;;;;;;1.65;91.01;97680.08;272775;1270;22263;-89
2024/03/25 00:55:35;;;;;;;6.30;3.50;;;;;;;1.68;91.62;97675.85;272747;1270;24581;-89
2024/03/25 01:01:37;;;;;;;5.30;3.00;;;;;;;1.71;92.11;97675.90;272557;1270;25128;-88
2024/03/25 01:07:39;;;;;;;6.40;3.10;;;;;;;1.86;92.16;97674.59;270523;1270;23201;-89
2024/03/25 01:13:43;;;;;;;9.30;3.80;;;;;;;2.13;91.87;97673.38;272636;1270;22267;-90
2024/03/25 01:19:46;;;;;;;4.70;2.80;;;;;;;2.36;92.52;97675.20;272679;1270;23686;-90
2024/03/25 01:25:48;;;;;;;5.50;3.20;;;;;;;2.56;93.15;97669.67;271068;1270;23883;-90
2024/03/25 01:31:50;;;;;;;6.00;3.30;;;;;;;2.66;93.96;97669.98;269584;1269;23709;-89
2024/03/25 01:37:53;;;;;;;6.10;3.50;;;;;;;2.73;94.62;97666.71;269560;1269;22728;-88
2024/03/25 01:43:54;;;;;;;4.60;2.50;;;;;;;2.77;94.88;97663.80;269565;1255;22696;-90
2024/03/25 01:49:57;;;;;;;7.10;2.80;;;;;;;2.79;95.20;97660.11;269571;1270;22563;-90
2024/03/25 01:56:00;;;;;;;6.50;2.80;;;;;;;2.79;95.01;97660.27;272150;1269;22349;-89
2024/03/25 02:02:08;;;;;;;4.20;2.50;;;;;;;2.77;95.38;97662.16;273196;1259;24043;-91
2024/03/25 02:08:17;;;;;;;4.20;2.10;;;;;;;2.75;95.55;97664.60;272666;1266;22509;-90
2024/03/25 02:14:19;;;;;;;5.40;2.90;;;;;;;2.75;95.68;97658.27;273151;1266;22327;-91
2024/03/25 02:20:21;;;;;;;5.30;2.50;;;;;;;2.76;95.86;97656.42;272726;1266;22512;-90
2024/03/25 02:26:23;;;;;;;4.90;2.60;;;;;;;2.80;96.50;97654.35;270774;1266;22586;-90
2024/03/25 02:32:25;;;;;;;7.70;3.00;;;;;;;2.83;96.99;97656.66;271122;1266;22563;-90
2024/03/25 02:38:28;;;;;;;5.90;3.00;;;;;;;2.84;96.94;97651.59;270536;1266;22409;-89
2024/03/25 02:44:31;;;;;;;5.60;2.90;;;;;;;2.88;97.27;97650.34;271364;1266;22625;-90
2024/03/25 02:50:33;;;;;;;4.50;2.50;;;;;;;2.92;97.55;97649.50;272373;1266;22576;-89
2024/03/25 02:56:35;;;;;;;4.40;2.30;;;;;;;2.98;97.44;97646.92;271427;1263;22419;-90
2024/03/25 03:02:37;;;;;;;5.00;2.40;;;;;;;3.02;97.30;97649.15;270885;1266;23185;-90
2024/03/25 03:08:39;;;;;;;5.10;2.90;;;;;;;2.97;97.11;97648.42;271182;1266;22553;-90
2024/03/25 03:14:41;;;;;;;5.60;2.60;;;;;;;2.85;96.86;97645.18;270969;1266;22454;-90
2024/03/25 03:20:48;;;;;;;4.50;2.10;;;;;;;2.72;97.16;97647.24;272980;1266;22448;-91
2024/03/25 03:26:52;;;;;;;2.40;1.60;;;;;;;2.61;97.57;97658.75;272173;1266;22308;-90
2024/03/25 03:32:54;;;;;;;5.30;2.40;;;;;;;2.50;97.66;97669.48;273201;1266;22290;-90
2024/03/25 03:38:55;;;;;;;5.60;2.50;;;;;;;2.41;97.76;97670.83;271555;1265;22405;-89
2024/03/25 03:44:57;;;;;;;4.30;2.60;;;;;;;2.33;97.99;97673.59;272141;1254;23721;-89
2024/03/25 03:51:00;;;;;;;3.80;2.40;;;;;;;2.31;98.35;97675.91;270243;1266;23335;-90
2024/03/25 03:57:02;;;;;;;3.80;2.40;;;;;;;2.31;98.49;97681.17;270800;1266;22732;-90
2024/03/25 04:03:04;;;;;;;3.70;2.40;;;;;;;2.30;98.37;97678.30;272109;1266;23167;-90
2024/03/25 04:09:09;;;;;;;4.90;2.60;;;;;;;2.29;98.30;97675.73;272032;1266;23616;-90
2024/03/25 04:15:17;;;;;;;3.80;2.20;;;;;;;2.21;98.25;97669.23;272226;1266;23174;-91
2024/03/25 04:21:19;;;;;;;3.30;2.00;;;;;;;2.10;98.07;97664.27;270504;1266;23212;-89
2024/03/25 04:27:24;;;;;;;3.80;2.40;;;;;;;1.96;98.30;97668.13;272683;1266;22252;-90
2024/03/25 04:33:26;;;;;;;4.60;2.60;;;;;;;1.84;98.46;97669.91;273191;1266;22434;-89
2024/03/25 04:39:28;;;;;;;3.80;2.10;;;;;;;1.75;98.43;97667.45;273257;1266;23127;-90
2024/03/25 04:45:30;;;;;;;3.20;1.90;;;;;;;1.70;98.40;97673.27;272799;1266;22626;-90
2024/03/25 04:51:32;;;;;;;5.60;2.80;;;;;;;1.72;98.66;97672.47;273180;1266;22403;-89
2024/03/25 04:57:34;;;;;;;3.90;2.50;;;;;;;1.77;98.76;97673.83;272840;1266;22501;-90
2024/03/25 05:03:36;;;;;;;3.60;2.50;;;;;;;1.88;98.97;97674.17;272786;1266;23562;-90
2024/03/25 05:09:38;;;;;;;5.50;2.20;;;;;;;2.09;99.59;97674.83;273270;1266;22388;-90
2024/03/25 05:15:40;;;;;;;3.80;2.50;;;;;;;2.46;99.85;97679.98;272712;1266;22467;-90
2024/03/25 05:21:42;;;;;;;5.00;2.60;;;;;;;2.85;99.96;97683.49;273130;1266;22393;-91
2024/03/25 05:27:44;;;;;;;4.00;2.30;;;;;;;3.13;99.68;97679.88;272077;1266;23385;-89
2024/03/25 05:33:45;;;;;;;5.40;2.40;;;;;;;3.36;99.13;97684.32;270361;1266;22537;-90
2024/03/25 05:39:48;;;;;;;6.80;2.30;;;;;;;3.57;99.06;97684.84;270499;1266;22529;-89
2024/03/25 05:45:51;;;;;;;2.60;2.00;;;;;;;3.70;99.03;97686.39;272864;1266;22416;-90
2024/03/25 05:51:53;;;;;;;4.10;2.00;;;;;;;3.84;98.86;97689.71;271897;1266;22460;-89
2024/03/25 05:57:55;;;;;;;2.90;1.80;;;;;;;3.99;99.12;97696.92;273125;1266;23168;-90
2024/03/25 06:03:58;;;;;;;4.00;1.90;;;;;;;4.15;99.22;97702.13;273012;1266;22428;-90
2024/03/25 06:09:59;;;;;;;3.10;1.70;;;;;;;4.24;99.19;97705.45;273249;1266;22299;-90
2024/03/25 06:16:02;;;;;;;2.40;1.70;;;;;;;4.30;99.66;97711.41;272139;1266;22585;-90
2024/03/25 06:22:04;;;;;;;2.90;1.80;;;;;;;4.32;99.81;97718.89;272502;1266;22324;-90
2024/03/25 06:28:06;;;;;;;3.50;1.90;;;;;;;4.31;99.96;97716.92;273181;1266;22540;-91
2024/03/25 06:34:17;;;;;;;1.90;1.40;;;;;;;4.31;100.00;97720.25;273087;1266;23353;-91
2024/03/25 06:40:22;;;;;;;3.50;1.80;;;;;;;4.31;100.00;97724.13;273094;1266;24395;-91
2024/03/25 06:46:24;;;;;;;3.30;1.90;;;;;;;4.34;100.00;97728.65;273140;1266;23220;-92
2024/03/25 06:52:25;;;;;;;9.40;2.50;;;;;;;4.40;100.00;97732.88;272904;1266;23088;-90
2024/03/25 06:58:28;;;;;;;3.20;2.10;;;;;;;4.50;100.00;97739.45;272843;1263;22461;-90
2024/03/25 07:04:30;;;;;;;3.30;1.80;;;;;;;4.57;100.00;97743.55;273268;1266;22422;-90
2024/03/25 07:10:33;;;;;;;2.60;2.00;;;;;;;4.64;100.00;97749.16;273028;1266;22427;-91
2024/03/25 07:16:35;;;;;;;4.20;1.80;;;;;;;4.76;100.00;97752.42;273074;1266;22399;-91
2024/03/25 07:22:38;;;;;;;3.20;1.80;;;;;;;4.87;100.00;97756.14;273104;1266;22527;-92
2024/03/25 07:28:40;;;;;;;2.80;1.50;;;;;;;5.01;100.00;97757.73;273177;1266;22261;-90
2024/03/25 07:34:42;;;;;;;2.90;1.40;;;;;;;5.16;100.00;97761.32;272893;1266;22407;-91
2024/03/25 07:40:45;;;;;;;2.40;1.60;;;;;;;5.23;100.00;97769.55;272970;1266;22385;-90
2024/03/25 07:46:49;;;;;;;12.50;4.60;;;;;;;5.31;100.00;97772.75;271684;1266;22347;-91
2024/03/25 07:52:50;;;;;;;6.30;2.50;;;;;;;5.41;100.00;97776.45;270437;1266;22454;-91
2024/03/25 07:58:56;;;;;;;5.50;2.30;;;;;;;5.48;100.00;97786.29;273159;1266;23469;-91
2024/03/25 08:04:59;;;;;;;5.20;2.10;;;;;;;5.60;100.00;97787.52;272896;1266;22253;-91
2024/03/25 08:11:02;;;;;;;3.70;2.40;;;;;;;5.83;100.00;97783.83;273061;1266;23032;-92
2024/03/25 08:17:03;;;;;;;18.40;5.60;;;;;;;6.04;100.00;97781.11;272617;1266;22551;-91
2024/03/25 08:23:06;;;;;;;2.60;1.80;;;;;;;6.24;100.00;97778.41;271491;1256;23257;-90
2024/03/25 08:29:09;;;;;;;2.60;1.50;;;;;;;6.44;100.00;97781.23;272176;1266;22415;-91
2024/03/25 08:35:11;;;;;;;2.70;1.70;;;;;;;6.49;100.00;97778.46;272081;1266;22462;-91
2024/03/25 08:41:12;;;;;;;4.50;1.70;;;;;;;6.45;100.00;97781.92;272792;1266;22609;-90
2024/03/25 08:47:24;;;;;;;;;;;;;;;;;;;;;
2024/03/25 08:53:40;;;;;;;2.50;1.70;;;;;;;6.37;100.00;97791.34;273064;1267;22474;-90
2024/03/25 08:59:54;;;;;;;7.20;2.90;;;;;;;6.29;100.00;97794.84;272657;1267;22393;-91
2024/03/25 09:06:00;;;;;;;7.50;4.20;;;;;;;6.25;100.00;97797.67;272545;1266;22424;-92
2024/03/25 09:12:06;;;;;;;8.90;4.00;;;;;;;6.28;100.00;97798.32;272964;1266;22340;-91
2024/03/25 09:18:18;;;;;;;8.80;3.60;;;;;;;6.25;100.00;97802.41;273002;1260;24978;-91
2024/03/25 09:25:05;;;;;;;7.00;3.80;;;;;;;6.25;99.96;97806.22;272281;1266;22505;-90
2024/03/25 09:31:13;;;;;;;7.40;3.50;;;;;;;6.28;100.00;97816.11;271866;1266;23777;-89
2024/03/25 09:37:18;;;;;;;3.60;2.80;;;;;;;6.16;100.00;97833.39;272831;1266;22403;-90
2024/03/25 09:44:10;;;;;;;8.40;4.50;;;;;;;6.03;100.00;97842.80;272911;1266;22456;-91
2024/03/25 09:50:21;;;;;;;10.40;4.50;;;;;;;6.09;100.00;97846.89;272924;1266;22385;-93
2024/03/25 09:56:23;;;;;;;7.00;3.60;;;;;;;6.16;100.00;97848.36;272346;1263;22381;-89
2024/03/25 10:02:28;;;;;;;11.20;5.00;;;;;;;6.28;100.00;97845.84;271705;1266;22557;-90
2024/03/25 10:08:41;;;;;;;10.80;5.50;;;;;;;6.77;100.00;97841.67;271893;1266;22238;-90
2024/03/25 10:14:49;;;;;;;10.90;5.10;;;;;;;8.06;100.00;97839.65;272023;1266;23028;-90
2024/03/25 10:20:56;;;;;;;7.20;3.20;;;;;;;9.12;99.91;97827.73;272989;1269;22691;-91
2024/03/25 10:27:09;;;;;;;5.10;3.10;;;;;;;9.63;97.96;97821.69;273208;1266;23100;-92
2024/03/25 10:33:11;;;;;;;4.70;2.80;;;;;;;9.56;94.71;97819.20;273307;1267;22408;-91
2024/03/25 10:39:58;;;;;;;;;;;;;;;;;;;;;
2024/03/25 10:53:19;;;;;;;4.70;2.70;;;;;;;8.85;94.97;97826.86;273185;1266;22254;-91
2024/03/25 10:59:26;;;;;;;4.00;2.80;;;;;;;9.37;94.06;97815.37;273001;1266;22394;-91
2024/03/25 11:05:34;;;;;;;6.20;2.70;;;;;;;9.17;91.94;97814.18;272890;1267;22351;-90
2024/03/25 11:11:46;;;;;;;5.10;2.90;;;;;;;8.77;92.27;97832.02;273132;1266;22304;-90
2024/03/25 11:17:49;;;;;;;3.50;1.90;;;;;;;8.38;92.84;97862.77;273043;1266;23493;-90
2024/03/25 11:23:51;;;;;;;4.40;1.40;;;;;;;7.36;92.73;97896.23;271031;1267;22570;-91
2024/03/25 11:30:41;;;;;;;4.30;1.90;;;;;;;6.11;92.57;97904.86;272595;1267;22575;-91
2024/03/25 11:36:56;;;;;;;2.40;1.70;;;;;;;5.27;94.14;97895.66;271979;1267;22262;-92
2024/03/25 11:43:13;;;;;;;;;;;;;;;;;;;;;
2024/03/25 11:49:23;;;;;;;3.00;2.20;;;;;;;5.05;97.80;97884.23;273056;1267;22356;-91
2024/03/25 11:55:34;;;;;;;4.30;2.60;;;;;;;5.26;98.94;97878.36;273205;1266;22453;-90
2024/03/25 12:01:49;;;;;;;2.90;2.10;;;;;;;5.58;99.73;97874.83;273212;1267;22763;-91
2024/03/25 12:07:51;;;;;;;5.60;3.30;;;;;;;6.29;100.00;97874.71;273170;1261;23066;-89
2024/03/25 12:13:53;;;;;;;8.00;3.80;;;;;;;7.04;100.00;97872.42;273351;1266;22336;-89
2024/03/25 12:20:03;;;;;;;7.00;3.30;;;;;;;7.65;100.00;97869.98;273104;1266;22530;-91
2024/03/25 12:26:05;;;;;;;7.10;4.50;;;;;;;8.17;100.00;97878.20;272929;1266;22981;-89
2024/03/25 12:32:09;;;;;;;5.00;2.90;;;;;;;8.49;99.80;97879.31;273401;1267;22466;-91
2024/03/25 12:38:24;;;;;;;7.90;3.20;;;;;;;8.37;99.26;97889.41;273289;1266;22443;-90
2024/03/25 12:44:26;;;;;;;4.90;2.30;;;;;;;7.90;98.48;97892.90;272974;1267;177388;-88
2024/03/25 12:50:30;;;;;;;2.70;1.60;;;;;;;7.31;98.45;97909.71;273220;1267;22399;-90
2024/03/25 12:56:33;;;;;;;5.40;1.50;;;;;;;6.74;98.40;97909.73;273312;1266;23579;-93
2024/03/25 13:02:34;;;;;;;3.90;1.90;;;;;;;6.47;99.39;97909.95;272919;1266;22553;-91
2024/03/25 13:08:37;;;;;;;2.80;1.80;;;;;;;6.46;99.96;97908.70;272661;1266;22358;-91
2024/03/25 13:14:42;;;;;;;6.40;3.30;;;;;;;6.70;100.00;97898.98;273350;1258;22313;-92
2024/03/25 13:20:47;;;;;;;6.40;2.20;;;;;;;7.06;100.00;97895.45;273364;1252;23290;-91
2024/03/25 13:26:48;;;;;;;1.90;1.20;;;;;;;7.25;100.00;97899.40;272758;1267;22458;-91
2024/03/25 13:32:50;;;;;;;1.50;1.00;;;;;;;7.42;99.96;97899.91;271936;1267;22511;-90
2024/03/25 13:38:58;;;;;;;3.90;1.30;;;;;;;7.60;99.88;97898.13;271842;1267;26204;-91
2024/03/25 13:45:00;;;;;;;3.10;1.90;;;;;;;7.94;99.99;97897.43;272964;1267;24144;-90
2024/03/25 13:51:19;;;;;;;4.00;2.10;;;;;;;7.90;98.57;97913.59;273408;1267;22625;-91
2024/03/25 13:58:15;;;;;;;;;;;;;;;;;;;;;
2024/03/25 14:13:36;;;;;;;3.90;3.10;;;;;;;6.95;99.85;97922.65;272251;1266;25430;-93
2024/03/25 14:28:32;;;;;;;4.70;2.90;;;;;;;7.40;100.00;97925.63;271844;1266;22553;-92
2024/03/25 14:34:40;;;;;;;10.80;5.70;;;;;;;7.58;100.00;97917.43;272583;1266;23016;-92
2024/03/25 14:41:44;;;;;;;4.70;3.00;;;;;;;7.68;100.00;97922.61;272417;1267;24476;-91
2024/03/25 14:48:32;;;;;;;6.20;2.90;;;;;;;7.88;100.00;97921.92;273309;1266;22389;-92
2024/03/25 14:55:23;;;;;;;;;;;;;;;;;;;;;
2024/03/25 15:02:14;;;;;;;3.60;2.60;;;;;;;7.74;99.56;97932.91;273798;1267;22355;-90
2024/03/25 15:09:13;;;;;;;4.00;2.60;;;;;;;7.70;99.85;97932.42;273501;1266;22393;-92
2024/03/25 15:15:49;;;;;;;;;;;;;;;;;;;;;
2024/03/25 15:22:44;;;;;;;6.10;2.40;;;;;;;7.77;99.31;97939.55;273002;1266;23067;-91
2024/03/25 15:36:35;;;;;;;;;;;;;;;;;;;;;
2024/03/25 15:43:03;;;;;;;10.40;5.00;;;;;;;7.80;99.01;97933.33;271158;1266;25467;-92
2024/03/25 15:49:32;;;;;;;;;;;;;;;;;;;;;
2024/03/25 15:55:47;;;;;;;8.60;4.30;;;;;;;7.58;98.50;97946.06;273449;1266;22301;-92
2024/03/25 16:02:49;;;;;;;;;;;;;;;;;;;;;
2024/03/25 16:09:23;;;;;;;7.80;4.70;;;;;;;7.39;98.96;97956.36;273142;1260;23423;-93
2024/03/25 16:16:15;;;;;;;8.90;5.20;;;;;;;7.36;99.29;97958.43;273128;1266;22270;-92
2024/03/25 16:23:55;;;;;;;;;;;;;;;;;;;;;
2024/03/25 16:31:00;;;;;;;6.20;4.30;;;;;;;7.26;98.42;97975.94;273260;1266;22390;-93
2024/03/25 16:38:05;;;;;;;7.80;4.50;;;;;;;7.09;98.06;97988.39;273034;1266;22434;-92
2024/03/25 16:44:23;;;;;;;7.70;4.60;;;;;;;6.91;98.30;97994.83;272865;1266;22410;-92
2024/03/25 16:51:20;;;;;;;11.70;6.00;;;;;;;6.78;99.27;98005.11;272930;1266;22730;-92
2024/03/25 16:58:21;;;;;;;8.30;5.00;;;;;;;6.44;99.72;98009.49;273003;1266;22296;-92
2024/03/25 17:04:55;;;;;;;11.50;5.10;;;;;;;6.27;100.00;98011.62;272351;1266;22601;-92
2024/03/25 17:11:14;;;;;;;10.30;6.80;;;;;;;6.16;100.00;98020.64;272295;1259;22384;-91
2024/03/25 17:17:17;;;;;;;11.30;6.40;;;;;;;5.97;100.00;98050.10;264310;1266;10002634;-90
2024/03/25 17:23:20;;;;;;;11.80;5.50;;;;;;;5.46;99.62;98056.27;271654;1266;22668;-91
2024/03/25 17:29:53;;;;;;;10.70;5.80;;;;;;;4.83;99.64;98055.66;272933;1266;22283;-90
2024/03/25 17:36:16;;;;;;;17.40;9.60;;;;;;;4.31;99.92;98066.27;273062;1266;23859;-90
2024/03/25 17:42:22;;;;;;;19.60;11.50;;;;;;;3.97;100.00;98075.13;272878;1266;22742;-90
2024/03/25 17:48:32;;;;;;;15.70;9.90;;;;;;;3.87;100.00;98080.23;272783;1266;22808;-91
2024/03/25 17:55:08;;;;;;;14.20;9.50;;;;;;;3.87;100.00;98081.61;273076;1266;22716;-91
2024/03/25 18:01:31;;;;;;;13.50;9.90;;;;;;;3.80;100.00;98082.87;272591;1266;22658;-90
2024/03/25 18:08:24;;;;;;;20.40;11.20;;;;;;;3.77;100.00;98098.56;271918;1266;23254;-91
2024/03/25 18:14:40;;;;;;;30.70;15.60;;;;;;;3.73;100.00;98094.63;271291;1266;22303;-90
2024/03/25 18:21:21;;;;;;;23.00;13.00;;;;;;;3.69;100.00;98100.62;271632;1266;23461;-90
2024/03/25 18:27:44;;;;;;;20.20;12.00;;;;;;;3.66;100.00;98103.48;273197;1266;22295;-90
2024/03/25 18:34:23;;;;;;;;;;;;;;;;;;;;;
2024/03/25 18:40:57;;;;;;;;;;;;;;;;;;;;;
2024/03/25 18:47:59;;;;;;;25.60;15.20;;;;;;;3.48;100.00;98119.76;273189;1266;22818;-91
2024/03/25 18:54:16;;;;;;;27.00;15.00;;;;;;;3.35;100.00;98126.15;272014;1266;23355;-91
2024/03/25 19:00:40;;;;;;;;;;;;;;;3.27;100.00;98132.27;273211;1266;22471;-90
2024/03/25 19:07:17;;;;;;;30.00;15.70;;;;;;;3.18;100.00;98136.77;273237;1266;23090;-90
2024/03/25 19:21:07;;;;;;;31.60;16.40;;;;;;;3.02;100.00;98140.89;269749;1266;22732;-91
2024/03/25 19:27:36;;;;;;;;;;;;;;;;;;;;;
2024/03/25 19:34:40;;;;;;;;;;;;;;;;;;;;;
2024/03/25 19:41:02;;;;;;;26.60;15.00;;;;;;;2.82;100.00;98147.06;273999;1265;22323;-89
2024/03/25 19:47:36;;;;;;;26.70;14.90;;;;;;;2.73;100.00;98143.19;273125;1264;22513;-90
2024/03/25 19:54:04;;;;;;;;;;;;;;;;;;;;;
2024/03/25 20:00:36;;;;;;;37.40;16.40;;;;;;;2.57;100.00;98152.00;273112;1266;22282;-89
2024/03/25 20:06:40;;;;;;;38.50;18.40;;;;;;;2.50;100.00;98153.95;272890;1266;22466;-89
2024/03/25 20:13:02;;;;;;;31.20;15.50;;;;;;;2.40;100.00;98158.67;273139;1266;22904;-91
2024/03/25 20:19:30;;;;;;;;;;;;;;;;;;;;;
2024/03/25 20:26:25;;;;;;;30.80;15.90;;;;;;;2.22;100.00;98170.79;272921;1266;22560;-90
2024/03/25 20:33:02;;;;;;;31.40;16.70;;;;;;;2.16;100.00;98175.35;272291;1266;22253;-90
2024/03/25 20:39:36;;;;;;;37.10;17.70;;;;;;;2.09;100.00;98183.42;271238;1273;22609;-89
2024/03/25 20:45:59;;;;;;;29.20;17.10;;;;;;;1.97;100.00;98185.96;271471;1266;23839;-90
2024/03/25 20:52:29;;;;;;;30.20;16.20;;;;;;;1.90;100.00;98190.92;272663;1266;22376;-90
2024/03/25 20:58:31;;;;;;;28.90;15.40;;;;;;;1.83;100.00;98195.37;273003;1266;23486;-90
2024/03/25 21:04:33;;;;;;;29.10;16.50;;;;;;;1.77;100.00;98195.12;273025;1266;23319;-89
2024/03/25 21:10:35;;;;;;;33.30;18.50;;;;;;;1.71;100.00;98199.80;272945;1266;22276;-88
2024/03/25 21:16:37;;;;;;;36.50;20.20;;;;;;;1.61;100.00;98205.85;271974;1266;22508;-93
2024/03/25 21:22:38;;;;;;;35.50;20.80;;;;;;;1.55;100.00;98208.90;271059;1266;22689;-89
2024/03/25 21:28:40;;;;;;;39.60;22.40;;;;;;;1.46;100.00;98209.27;271869;1266;22260;-87
2024/03/25 21:34:42;;;;;;;38.50;19.20;;;;;;;1.41;100.00;98211.70;273282;1266;22345;-89
2024/03/25 21:40:44;;;;;;;39.30;21.20;;;;;;;1.38;100.00;98215.91;273069;1266;22331;-88
2024/03/25 21:46:46;;;;;;;37.00;19.80;;;;;;;1.34;100.00;98216.88;273092;1266;22317;-88
2024/03/25 21:53:01;;;;;;;41.30;19.40;;;;;;;1.31;100.00;98215.45;272226;1266;22551;-88
2024/03/25 21:59:04;;;;;;;32.70;18.50;;;;;;;1.23;100.00;98220.28;272597;1266;22356;-90
2024/03/25 22:05:06;;;;;;;40.50;21.70;;;;;;;1.18;100.00;98222.02;273033;1267;22346;-89
2024/03/25 22:11:08;;;;;;;37.20;21.60;;;;;;;1.13;100.00;98223.05;273249;1259;22515;-88
2024/03/25 22:17:10;;;;;;;36.40;20.00;;;;;;;1.12;100.00;98217.87;273264;1266;22472;-88
2024/03/25 22:23:11;;;;;;;43.60;24.30;;;;;;;1.03;100.00;98226.79;273202;1266;22291;-88
2024/03/25 22:29:13;;;;;;;42.60;24.10;;;;;;;0.93;100.00;98231.30;273317;1266;22391;-88
2024/03/25 22:35:15;;;;;;;41.80;23.00;;;;;;;0.93;100.00;98236.98;272474;1266;23129;-88
2024/03/25 22:41:17;;;;;;;31.70;17.40;;;;;;;0.87;100.00;98239.77;273346;1266;22266;-88
2024/03/25 22:47:19;;;;;;;44.40;24.90;;;;;;;0.85;100.00;98241.29;271278;1266;23354;-87
2024/03/25 22:53:22;;;;;;;40.50;21.60;;;;;;;0.74;100.00;98244.44;273058;1266;23543;-88
2024/03/25 22:59:23;;;;;;;37.60;20.80;;;;;;;0.67;100.00;98249.00;273442;1266;22276;-88
2024/03/25 23:05:25;;;;;;;37.30;21.80;;;;;;;0.68;100.00;98253.14;273360;1266;22709;-88
2024/03/25 23:11:28;;;;;;;43.10;23.30;;;;;;;0.74;100.00;98249.52;273227;1267;23034;-92
2024/03/25 23:17:30;;;;;;;48.30;24.20;;;;;;;0.77;100.00;98249.55;273362;1266;22375;-87
2024/03/25 23:23:31;;;;;;;51.90;26.60;;;;;;;0.75;100.00;98253.14;272016;1266;24593;-88
2024/03/25 23:29:34;;;;;;;51.70;27.80;;;;;;;0.81;100.00;98249.23;273316;1266;22485;-88
2024/03/25 23:35:36;;;;;;;47.70;26.60;;;;;;;0.91;100.00;98240.63;273352;1266;22380;-88
2024/03/25 23:41:38;;;;;;;46.90;26.10;;;;;;;0.99;100.00;98242.73;273349;1266;22279;-88
2024/03/25 23:47:40;;;;;;;59.90;26.60;;;;;;;0.97;100.00;98240.58;271629;1266;22233;-88
2024/03/25 23:53:42;;;;;;;54.90;26.30;;;;;;;0.86;100.00;98238.65;272157;1266;25456;-87
2024/03/25 23:59:43;;;;;;;54.80;28.30;;;;;;;0.86;100.00;98232.46;272021;1266;23223;-88
